Time;durP1;ratioP1;P1;durP2;ratioP2;P2;SDS_P1;SDS_P2;PMS_P1;PMS_P2;Temp;Humidity;BMP_temperature;BMP_pressure;BME280_temperature;BME280_humidity;BME280_pressure;Samples;Min_cycle;Max_cycle;Signal;HPM_P1;HPM_P2
2022/01/19 00:00:06;;;;;;;3.97;2.47;;;4.70;99.90;;;;;;5068872;28;20172;-74
2022/01/19 00:02:34;;;;;;;2.97;2.40;;;4.70;99.90;;;;;;5075885;28;20192;-73
2022/01/19 00:05:02;;;;;;;3.63;2.30;;;4.70;99.90;;;;;;5074017;28;20243;-72
2022/01/19 00:07:30;;;;;;;2.40;2.20;;;4.70;99.90;;;;;;5066379;28;20205;-73
2022/01/19 00:10:03;;;;;;;3.87;2.13;;;4.70;99.90;;;;;;5068331;28;20191;-75
2022/01/19 00:12:34;;;;;;;2.83;2.27;;;4.70;99.90;;;;;;5057912;28;20235;-73
2022/01/19 00:15:00;;;;;;;4.07;2.73;;;4.60;99.90;;;;;;5095990;28;20197;-71
2022/01/19 00:17:26;;;;;;;2.23;2.00;;;4.60;99.90;;;;;;5077392;28;20214;-75
2022/01/19 00:19:51;;;;;;;3.40;2.50;;;4.60;99.90;;;;;;5081673;28;20200;-74
2022/01/19 00:22:17;;;;;;;2.43;2.07;;;4.60;99.90;;;;;;5068911;28;20185;-70
2022/01/19 00:24:43;;;;;;;2.97;2.40;;;4.50;99.90;;;;;;5069581;28;20277;-76
2022/01/19 00:27:09;;;;;;;2.60;2.23;;;4.50;99.90;;;;;;5061774;28;20207;-74
2022/01/19 00:29:35;;;;;;;3.23;2.33;;;4.50;99.90;;;;;;5068762;28;20189;-72
2022/01/19 00:32:01;;;;;;;3.33;2.50;;;4.50;99.90;;;;;;5063164;28;20217;-77
2022/01/19 00:34:28;;;;;;;3.17;2.20;;;4.50;99.90;;;;;;5088537;28;20184;-71
2022/01/19 00:36:56;;;;;;;2.63;2.30;;;4.50;99.90;;;;;;5069100;28;20185;-73
2022/01/19 00:39:30;;;;;;;3.70;2.40;;;4.50;99.90;;;;;;5066688;28;20189;-70
2022/01/19 00:41:58;;;;;;;3.03;2.67;;;4.50;99.90;;;;;;5070737;28;20195;-76
2022/01/19 00:44:24;;;;;;;3.40;2.47;;;4.60;99.90;;;;;;5069726;28;20215;-74
2022/01/19 00:46:52;;;;;;;3.33;2.43;;;4.50;99.90;;;;;;5069057;28;20181;-74
2022/01/19 00:49:21;;;;;;;3.30;2.20;;;4.50;99.90;;;;;;5063412;28;20803;-75
2022/01/19 00:51:46;;;;;;;4.60;2.60;;;4.60;99.90;;;;;;5071657;28;20201;-73
2022/01/19 00:54:16;;;;;;;4.87;2.33;;;4.60;99.90;;;;;;5070956;28;20193;-74
2022/01/19 00:56:42;;;;;;;2.87;2.10;;;4.60;99.90;;;;;;5077543;28;20185;-72
2022/01/19 00:59:08;;;;;;;2.60;2.13;;;4.60;99.90;;;;;;5070751;28;20243;-76
2022/01/19 01:01:34;;;;;;;3.40;2.47;;;4.60;99.90;;;;;;5070507;28;20186;-73
2022/01/19 01:04:00;;;;;;;2.80;2.50;;;4.70;99.90;;;;;;5075645;28;20411;-76
2022/01/19 01:06:27;;;;;;;3.40;2.27;;;4.70;99.90;;;;;;5079581;28;20177;-74
2022/01/19 01:08:53;;;;;;;2.67;2.27;;;4.80;99.90;;;;;;5065643;28;20172;-76
2022/01/19 01:11:28;;;;;;;2.90;2.03;;;4.90;99.90;;;;;;5075433;28;20292;-72
2022/01/19 01:16:33;;;;;;;2.73;2.40;;;5.10;99.90;;;;;;5083740;28;20184;-76
2022/01/19 01:19:03;;;;;;;3.23;2.70;;;5.20;99.90;;;;;;5074663;28;20183;-75
2022/01/19 01:21:28;;;;;;;4.07;2.40;;;5.30;99.90;;;;;;5073859;28;20181;-73
2022/01/19 01:23:54;;;;;;;2.63;2.37;;;5.40;99.90;;;;;;5078549;28;20224;-79
2022/01/19 01:26:22;;;;;;;3.30;2.50;;;5.50;99.90;;;;;;5071645;28;20228;-74
2022/01/19 01:28:47;;;;;;;2.90;2.40;;;5.60;99.90;;;;;;5068849;28;20209;-79
2022/01/19 01:31:15;;;;;;;2.77;2.57;;;5.70;99.90;;;;;;5073350;28;20313;-70
2022/01/19 01:33:43;;;;;;;4.10;2.90;;;5.80;99.90;;;;;;5075270;28;20242;-75
2022/01/19 01:36:10;;;;;;;3.00;2.70;;;5.90;99.90;;;;;;5075226;28;20286;-78
2022/01/19 01:38:38;;;;;;;2.90;2.60;;;5.90;99.90;;;;;;5070881;28;20505;-75
2022/01/19 01:41:13;;;;;;;3.10;2.80;;;6.10;99.90;;;;;;5074167;28;20169;-68
2022/01/19 01:43:47;;;;;;;2.90;2.67;;;6.10;99.90;;;;;;5072790;28;20197;-74
2022/01/19 01:46:40;;;;;;;2.90;2.60;;;6.20;99.90;;;;;;5072780;28;20183;-80
2022/01/19 01:49:14;;;;;;;3.00;2.70;;;6.30;99.90;;;;;;5068527;28;20201;-79
2022/01/19 01:54:23;;;;;;;3.00;2.50;;;6.40;99.90;;;;;;5070038;28;20179;-79
2022/01/19 01:56:49;;;;;;;2.60;2.40;;;6.50;99.90;;;;;;5071821;28;20173;-79
2022/01/19 01:59:15;;;;;;;3.13;2.80;;;6.60;99.90;;;;;;5073752;28;20262;-76
2022/01/19 02:01:41;;;;;;;2.73;2.53;;;6.60;99.90;;;;;;5088328;28;20251;-80
2022/01/19 02:04:07;;;;;;;2.90;2.60;;;6.60;99.90;;;;;;5079269;28;20181;-85
2022/01/19 02:06:55;;;;;;;2.57;2.37;;;6.70;99.90;;;;;;5070400;28;20181;-83
2022/01/19 02:09:24;;;;;;;2.60;2.40;;;6.70;99.90;;;;;;5080304;28;20223;-84
2022/01/19 02:22:54;;;;;;;3.23;1.97;;;6.90;99.90;;;;;;5067512;28;20233;-82
2022/01/19 02:25:26;;;;;;;1.93;1.73;;;6.90;99.90;;;;;;5084138;28;20187;-78
2022/01/19 02:41:19;;;;;;;1.30;1.20;;;7.00;99.90;;;;;;5062488;28;20208;-76
2022/01/19 02:43:49;;;;;;;1.10;0.90;;;7.00;99.90;;;;;;5084953;28;20216;-81
2022/01/19 02:51:59;;;;;;;1.10;1.00;;;7.10;99.90;;;;;;5058110;28;20196;-73
2022/01/19 02:54:28;;;;;;;2.00;1.17;;;7.10;99.90;;;;;;5092079;28;20210;-81
2022/01/19 02:56:58;;;;;;;1.20;1.10;;;7.10;99.90;;;;;;5085692;28;20179;-71
2022/01/19 03:10:23;;;;;;;1.90;1.37;;;7.20;99.90;;;;;;5065757;28;20276;-84
2022/01/19 03:12:48;;;;;;;1.30;1.20;;;7.20;99.90;;;;;;5067602;28;20227;-81
2022/01/19 03:15:17;;;;;;;1.97;1.40;;;7.20;99.90;;;;;;5067253;28;20216;-83
2022/01/19 03:17:42;;;;;;;1.80;1.43;;;7.20;99.90;;;;;;5072312;28;20200;-78
2022/01/19 03:20:10;;;;;;;2.17;1.50;;;7.20;99.90;;;;;;5071954;28;20180;-80
2022/01/19 03:25:23;;;;;;;1.63;1.37;;;7.20;99.90;;;;;;5072591;28;20200;-78
2022/01/19 03:27:51;;;;;;;1.50;1.40;;;7.20;99.90;;;;;;5068065;28;20181;-81
2022/01/19 03:30:18;;;;;;;1.70;1.20;;;7.20;99.90;;;;;;5070163;28;20219;-81
2022/01/19 03:32:47;;;;;;;1.30;1.20;;;7.20;99.90;;;;;;5073962;28;20266;-83
2022/01/19 03:35:16;;;;;;;1.43;1.33;;;7.20;99.90;;;;;;5072883;28;20184;-80
2022/01/19 03:37:44;;;;;;;1.50;1.40;;;7.20;99.90;;;;;;5071513;28;20212;-84
2022/01/19 03:40:12;;;;;;;1.57;1.47;;;7.20;99.90;;;;;;5074581;28;21568;-84
2022/01/19 03:42:41;;;;;;;1.87;1.43;;;7.20;99.90;;;;;;5070617;28;20450;-83
2022/01/19 03:45:11;;;;;;;1.77;1.53;;;7.20;99.90;;;;;;5068362;28;20187;-84
2022/01/19 03:47:46;;;;;;;1.73;1.50;;;7.20;99.90;;;;;;5106239;28;20184;-84
2022/01/19 03:50:14;;;;;;;1.40;1.30;;;7.20;99.90;;;;;;5063903;28;20286;-85
2022/01/19 03:52:40;;;;;;;1.83;1.50;;;7.20;99.90;;;;;;5070002;28;20260;-79
2022/01/19 03:55:06;;;;;;;1.30;1.20;;;7.20;99.90;;;;;;5076160;28;20263;-85
2022/01/19 03:57:34;;;;;;;1.43;1.30;;;7.20;99.90;;;;;;5069998;28;20267;-76
2022/01/19 04:00:02;;;;;;;1.83;1.17;;;7.20;99.90;;;;;;5075251;28;20185;-84
2022/01/19 04:02:28;;;;;;;2.17;1.50;;;7.20;99.90;;;;;;5073829;28;20227;-84
2022/01/19 04:05:00;;;;;;;1.50;1.40;;;7.20;99.90;;;;;;5068946;28;20185;-80
2022/01/19 04:07:26;;;;;;;1.50;1.30;;;7.20;99.90;;;;;;5067754;28;20494;-82
2022/01/19 04:09:54;;;;;;;1.67;1.40;;;7.20;99.90;;;;;;5069850;28;20192;-79
2022/01/19 04:12:35;;;;;;;1.30;1.20;;;7.20;99.90;;;;;;5076615;28;20294;-83
2022/01/19 04:15:01;;;;;;;2.13;1.63;;;7.20;99.90;;;;;;5066191;28;20205;-81
2022/01/19 04:17:27;;;;;;;1.80;1.20;;;7.20;99.90;;;;;;5073199;28;20205;-82
2022/01/19 04:19:56;;;;;;;2.13;1.30;;;7.20;99.90;;;;;;5070610;28;20462;-77
2022/01/19 04:22:23;;;;;;;2.20;1.30;;;7.20;99.90;;;;;;5080697;28;20193;-77
2022/01/19 04:24:49;;;;;;;1.30;1.10;;;7.20;99.90;;;;;;5072221;28;20185;-71
2022/01/19 04:29:57;;;;;;;1.30;1.13;;;7.10;99.90;;;;;;5069647;28;20217;-83
2022/01/19 04:32:37;;;;;;;2.40;1.10;;;7.10;99.90;;;;;;5074541;28;20203;-82
2022/01/19 04:35:07;;;;;;;1.30;1.20;;;7.10;99.90;;;;;;5074145;28;20183;-83
2022/01/19 05:02:39;;;;;;;1.40;1.13;;;7.00;99.90;;;;;;5078672;28;20291;-79
2022/01/19 05:07:37;;;;;;;1.17;1.07;;;7.00;99.90;;;;;;5070681;28;20185;-80
2022/01/19 05:15:19;;;;;;;1.43;1.33;;;7.00;99.90;;;;;;5077163;28;20238;-80
2022/01/19 05:17:44;;;;;;;1.50;1.30;;;7.00;99.90;;;;;;5074295;28;20197;-81
2022/01/19 05:20:12;;;;;;;1.30;1.20;;;7.00;99.90;;;;;;5068781;28;20192;-82
2022/01/19 05:22:38;;;;;;;1.60;1.40;;;7.00;99.90;;;;;;5074067;28;20188;-83
2022/01/19 05:25:04;;;;;;;1.73;1.20;;;7.00;99.90;;;;;;5079516;28;20197;-83
2022/01/19 05:27:31;;;;;;;1.90;1.37;;;7.00;99.90;;;;;;5072442;28;20188;-81
2022/01/19 05:30:01;;;;;;;1.60;1.50;;;7.00;99.90;;;;;;5074968;28;20209;-84
2022/01/19 05:32:29;;;;;;;1.30;1.20;;;7.00;99.90;;;;;;5072884;28;20203;-84
2022/01/19 05:34:54;;;;;;;1.50;1.40;;;7.00;99.90;;;;;;5073688;28;20176;-82
2022/01/19 05:37:23;;;;;;;1.60;1.50;;;7.00;99.90;;;;;;5067773;28;20197;-82
2022/01/19 05:39:50;;;;;;;1.63;1.53;;;7.00;99.90;;;;;;5067429;28;20181;-84
2022/01/19 05:42:16;;;;;;;2.67;1.60;;;7.00;99.90;;;;;;5072122;28;20200;-82
2022/01/19 05:44:44;;;;;;;2.40;2.00;;;7.00;99.90;;;;;;5074184;28;20181;-81
2022/01/19 05:47:14;;;;;;;2.53;2.07;;;7.00;99.90;;;;;;5078920;28;20188;-81
2022/01/19 05:49:43;;;;;;;2.00;1.73;;;7.00;99.90;;;;;;5078220;28;20191;-79
2022/01/19 05:52:10;;;;;;;2.03;1.80;;;7.00;99.90;;;;;;5076070;28;20212;-82
2022/01/19 05:54:35;;;;;;;1.70;1.60;;;7.00;99.90;;;;;;5070110;28;20525;-84
2022/01/19 05:57:01;;;;;;;2.10;1.87;;;7.00;99.90;;;;;;5070183;28;20181;-79
2022/01/19 05:59:27;;;;;;;2.63;1.80;;;7.00;99.90;;;;;;5074403;28;20180;-72
2022/01/19 06:01:55;;;;;;;1.70;1.60;;;7.00;99.90;;;;;;5072399;28;20201;-77
2022/01/19 06:04:23;;;;;;;2.20;2.00;;;7.00;99.90;;;;;;5073832;28;20273;-83
2022/01/19 06:06:50;;;;;;;2.20;2.00;;;7.00;99.90;;;;;;5073624;28;20287;-84
2022/01/19 06:09:33;;;;;;;2.30;2.10;;;7.00;99.90;;;;;;5065853;28;20199;-84
2022/01/19 06:12:04;;;;;;;2.37;2.00;;;7.00;99.90;;;;;;5073758;28;20200;-80
2022/01/19 06:14:34;;;;;;;2.20;2.00;;;7.00;99.90;;;;;;5083666;28;20183;-83
2022/01/19 06:17:00;;;;;;;2.30;2.10;;;7.00;99.90;;;;;;5079864;28;20188;-82
2022/01/19 06:19:28;;;;;;;2.50;1.90;;;7.00;99.90;;;;;;5078439;28;20570;-81
2022/01/19 06:21:56;;;;;;;2.13;1.93;;;7.00;99.90;;;;;;5074073;28;20186;-78
2022/01/19 06:24:31;;;;;;;2.20;2.00;;;6.90;99.90;;;;;;5080445;28;20209;-81
2022/01/19 06:27:02;;;;;;;2.10;1.90;;;6.90;99.90;;;;;;5076599;28;20197;-71
2022/01/19 06:29:28;;;;;;;2.47;1.70;;;6.90;99.90;;;;;;5074812;28;20246;-75
2022/01/19 06:31:55;;;;;;;3.80;3.03;;;6.90;99.90;;;;;;5070926;28;20209;-72
2022/01/19 06:34:21;;;;;;;3.17;2.80;;;6.90;99.90;;;;;;5074799;28;20755;-77
2022/01/19 06:36:51;;;;;;;2.87;2.20;;;6.90;99.90;;;;;;5074070;28;20215;-82
2022/01/19 06:39:17;;;;;;;2.50;2.30;;;6.90;99.90;;;;;;5070618;28;20191;-84
2022/01/19 06:41:45;;;;;;;2.27;2.07;;;6.90;99.90;;;;;;5081115;28;20196;-80
2022/01/19 06:44:14;;;;;;;2.60;2.30;;;6.90;99.90;;;;;;5081946;28;20200;-81
2022/01/19 06:46:42;;;;;;;2.40;2.20;;;6.90;99.90;;;;;;5073533;28;20195;-81
2022/01/19 06:49:08;;;;;;;2.43;2.23;;;6.90;99.90;;;;;;5075567;28;20176;-82
2022/01/19 06:51:36;;;;;;;2.57;2.37;;;6.90;99.90;;;;;;5076875;28;20208;-80
2022/01/19 06:54:02;;;;;;;2.70;2.13;;;6.90;99.90;;;;;;5080251;28;20244;-74
2022/01/19 06:56:27;;;;;;;2.90;2.60;;;6.90;99.90;;;;;;5083413;28;20191;-76
2022/01/19 06:58:58;;;;;;;2.63;2.43;;;6.90;99.90;;;;;;5073750;28;20194;-83
2022/01/19 07:01:23;;;;;;;2.43;2.23;;;6.90;99.90;;;;;;5113494;27;20179;-80
2022/01/19 07:03:49;;;;;;;2.57;2.37;;;6.90;99.90;;;;;;5105267;28;20269;-83
2022/01/19 07:06:17;;;;;;;2.57;2.37;;;6.90;99.90;;;;;;5074526;28;20204;-83
2022/01/19 07:08:45;;;;;;;3.00;2.30;;;7.00;99.90;;;;;;5077482;28;20192;-78
2022/01/19 07:11:11;;;;;;;2.40;2.20;;;7.00;99.90;;;;;;5077511;28;20181;-77
2022/01/19 07:13:37;;;;;;;2.70;2.50;;;7.00;99.90;;;;;;5113783;27;20200;-82
2022/01/19 07:16:02;;;;;;;3.00;2.70;;;7.00;99.90;;;;;;5079478;28;20423;-77
2022/01/19 07:18:28;;;;;;;2.87;2.57;;;7.00;99.90;;;;;;5106406;27;20189;-74
2022/01/19 07:20:54;;;;;;;2.47;2.27;;;7.00;99.90;;;;;;5077406;28;20200;-84
2022/01/19 07:23:20;;;;;;;2.90;2.60;;;7.00;99.90;;;;;;5064335;28;20249;-80
2022/01/19 07:25:47;;;;;;;3.63;2.77;;;7.00;99.90;;;;;;5072872;28;20206;-70
2022/01/19 07:28:16;;;;;;;2.60;2.40;;;7.00;99.90;;;;;;5065819;28;20196;-83
2022/01/19 07:30:42;;;;;;;3.23;2.73;;;7.00;99.90;;;;;;5097888;27;20200;-79
2022/01/19 07:33:11;;;;;;;3.27;2.80;;;7.00;99.90;;;;;;5076133;28;20227;-78
2022/01/19 07:35:39;;;;;;;3.00;2.70;;;7.00;99.90;;;;;;5076165;28;20290;-87
2022/01/19 07:38:08;;;;;;;2.50;2.30;;;7.00;99.90;;;;;;5064675;28;20177;-84
2022/01/19 07:40:34;;;;;;;2.60;2.40;;;7.00;99.90;;;;;;5087101;28;20180;-85
2022/01/19 07:43:02;;;;;;;3.53;2.50;;;7.00;99.90;;;;;;5073091;28;20238;-86
2022/01/19 07:45:28;;;;;;;3.00;2.53;;;7.00;99.90;;;;;;5092903;28;20204;-82
2022/01/19 07:47:56;;;;;;;3.50;2.80;;;7.00;99.90;;;;;;5069063;28;20220;-85
2022/01/19 07:50:24;;;;;;;2.90;2.60;;;7.00;99.90;;;;;;5068209;28;20208;-84
2022/01/19 07:52:50;;;;;;;2.87;2.60;;;7.00;99.90;;;;;;5066918;28;20224;-85
2022/01/19 07:55:18;;;;;;;2.60;2.40;;;7.00;99.90;;;;;;5065857;28;20204;-76
2022/01/19 07:57:48;;;;;;;2.80;2.60;;;7.10;99.90;;;;;;5066761;28;20195;-81
2022/01/19 08:00:15;;;;;;;3.80;2.73;;;7.10;99.90;;;;;;5071639;28;20173;-82
2022/01/19 08:02:40;;;;;;;3.40;2.57;;;7.10;99.90;;;;;;5082524;28;20266;-82
2022/01/19 08:05:10;;;;;;;3.03;2.73;;;7.10;99.90;;;;;;5064104;28;20240;-80
2022/01/19 08:07:38;;;;;;;3.33;2.80;;;7.10;99.90;;;;;;5089913;28;20184;-82
2022/01/19 08:10:06;;;;;;;2.67;2.30;;;7.10;99.90;;;;;;5074142;28;20197;-75
2022/01/19 08:12:32;;;;;;;2.60;2.40;;;7.10;99.90;;;;;;5072929;28;20203;-83
2022/01/19 08:15:02;;;;;;;3.27;2.77;;;7.10;99.90;;;;;;5076438;28;20184;-77
2022/01/19 08:17:28;;;;;;;3.77;2.60;;;7.10;99.90;;;;;;5081973;28;20204;-82
2022/01/19 08:19:55;;;;;;;3.33;2.73;;;7.10;99.90;;;;;;5068632;28;20325;-81
2022/01/19 08:22:21;;;;;;;3.67;3.10;;;7.10;99.90;;;;;;5073308;28;20254;-83
2022/01/19 08:24:47;;;;;;;3.53;2.57;;;7.10;99.90;;;;;;5084698;28;20188;-76
2022/01/19 08:27:13;;;;;;;4.87;2.90;;;7.10;99.90;;;;;;5101717;28;20188;-73
2022/01/19 08:29:38;;;;;;;3.70;3.17;;;7.10;99.90;;;;;;5072264;28;20278;-84
2022/01/19 08:32:05;;;;;;;2.90;2.60;;;7.10;99.90;;;;;;5070472;28;20224;-69
2022/01/19 08:34:32;;;;;;;4.67;2.83;;;7.10;99.90;;;;;;5075843;28;20191;-80
2022/01/19 08:36:59;;;;;;;3.43;3.13;;;7.10;99.90;;;;;;5078206;28;20258;-70
2022/01/19 08:39:27;;;;;;;3.33;3.00;;;7.10;99.90;;;;;;5075937;28;20869;-75
2022/01/19 08:41:55;;;;;;;3.23;2.80;;;7.10;99.90;;;;;;5075107;28;20176;-74
2022/01/19 08:44:22;;;;;;;3.30;3.00;;;7.10;99.90;;;;;;5075511;28;20178;-79
2022/01/19 08:46:48;;;;;;;4.43;2.93;;;7.10;99.90;;;;;;5086301;28;20183;-83
2022/01/19 08:49:16;;;;;;;3.50;3.00;;;7.10;99.90;;;;;;5069453;28;20201;-77
2022/01/19 08:51:42;;;;;;;3.83;2.80;;;7.00;99.90;;;;;;5065944;28;20267;-84
2022/01/19 08:54:07;;;;;;;3.60;3.20;;;7.00;99.90;;;;;;5083453;28;20247;-76
2022/01/19 08:56:35;;;;;;;3.67;3.00;;;7.00;99.90;;;;;;5075824;28;20197;-76
2022/01/19 08:59:01;;;;;;;3.40;3.10;;;7.00;99.90;;;;;;5074332;28;20180;-77
2022/01/19 09:01:26;;;;;;;3.20;2.90;;;7.00;99.90;;;;;;5077969;28;20267;-77
2022/01/19 09:03:52;;;;;;;3.00;2.70;;;7.00;99.90;;;;;;5079078;28;20191;-75
2022/01/19 09:06:21;;;;;;;2.90;2.70;;;7.00;99.90;;;;;;5073504;28;20185;-73
2022/01/19 09:08:46;;;;;;;3.40;3.00;;;7.00;99.90;;;;;;5074073;28;20198;-78
2022/01/19 09:11:12;;;;;;;3.77;3.20;;;7.10;99.90;;;;;;5074460;28;20191;-79
2022/01/19 09:13:39;;;;;;;3.20;2.73;;;7.10;99.90;;;;;;5073243;28;20200;-77
2022/01/19 09:16:07;;;;;;;3.80;2.93;;;7.10;99.90;;;;;;5092823;28;20200;-82
2022/01/19 09:18:33;;;;;;;3.77;3.03;;;7.10;99.90;;;;;;5077185;28;20177;-82
2022/01/19 09:20:59;;;;;;;3.43;3.07;;;7.10;99.90;;;;;;5074870;28;20211;-76
2022/01/19 09:23:30;;;;;;;3.70;3.40;;;7.10;99.90;;;;;;5090194;28;20177;-80
2022/01/19 09:25:59;;;;;;;3.77;3.37;;;7.10;99.90;;;;;;5072919;28;20238;-73
2022/01/19 09:28:24;;;;;;;4.10;3.40;;;7.10;99.90;;;;;;5073867;28;20200;-75
2022/01/19 09:30:50;;;;;;;3.50;3.20;;;7.10;99.90;;;;;;5078655;28;20279;-78
2022/01/19 09:33:20;;;;;;;3.93;3.53;;;7.10;99.90;;;;;;5076327;28;20200;-76
2022/01/19 09:36:06;;;;;;;5.43;3.60;;;7.10;99.90;;;;;;5074021;28;20183;-78
2022/01/19 09:38:37;;;;;;;3.40;3.10;;;7.10;99.90;;;;;;5075985;28;20240;-82
2022/01/19 09:41:09;;;;;;;3.40;3.10;;;7.20;99.90;;;;;;5075263;28;20208;-80
2022/01/19 09:43:35;;;;;;;4.17;3.70;;;7.10;99.90;;;;;;5077864;28;20192;-77
2022/01/19 09:46:08;;;;;;;4.00;3.60;;;7.20;99.90;;;;;;5075560;28;20322;-81
2022/01/19 09:48:34;;;;;;;3.50;3.20;;;7.20;99.90;;;;;;5073020;28;20180;-73
2022/01/19 09:51:00;;;;;;;4.00;3.50;;;7.20;99.90;;;;;;5075233;28;20353;-78
2022/01/19 09:53:28;;;;;;;3.37;2.93;;;7.10;99.90;;;;;;5077546;28;20294;-77
2022/01/19 09:55:54;;;;;;;4.57;3.50;;;7.10;99.90;;;;;;5065893;28;20183;-79
2022/01/19 09:58:22;;;;;;;4.10;3.20;;;7.20;99.90;;;;;;5077944;28;20302;-75
2022/01/19 10:00:51;;;;;;;3.57;3.00;;;7.20;99.90;;;;;;5077210;28;20215;-75
2022/01/19 10:03:33;;;;;;;3.90;3.33;;;7.20;99.90;;;;;;5066355;28;20255;-78
2022/01/19 10:06:16;;;;;;;4.13;3.60;;;7.20;99.90;;;;;;5069350;28;20747;-71
2022/01/19 10:08:54;;;;;;;3.67;3.10;;;7.20;99.90;;;;;;5084407;28;20188;-80
2022/01/19 10:17:03;;;;;;;4.30;3.87;;;7.20;99.90;;;;;;5066644;28;20202;-76
2022/01/19 10:19:45;;;;;;;3.77;3.30;;;7.20;99.90;;;;;;5102490;28;20219;-75
2022/01/19 10:22:13;;;;;;;3.50;3.07;;;7.20;99.90;;;;;;5079022;28;20176;-83
2022/01/19 10:24:39;;;;;;;4.33;3.50;;;7.10;99.90;;;;;;5088493;28;20187;-75
2022/01/19 10:27:43;;;;;;;3.90;3.50;;;7.10;99.90;;;;;;5073898;28;20177;-80
2022/01/19 10:30:08;;;;;;;3.67;3.33;;;7.10;99.90;;;;;;5064719;28;20558;-72
2022/01/19 10:32:38;;;;;;;3.47;3.17;;;7.10;99.90;;;;;;5103217;28;20197;-76
2022/01/19 10:35:31;;;;;;;3.60;3.30;;;7.10;99.90;;;;;;5086675;28;20164;-75
2022/01/19 10:38:16;;;;;;;3.50;3.20;;;7.10;99.90;;;;;;5076273;28;21430;-76
2022/01/19 10:40:54;;;;;;;3.83;3.40;;;7.10;99.90;;;;;;5075363;28;20645;-75
2022/01/19 10:43:38;;;;;;;3.53;3.00;;;7.10;99.90;;;;;;5106359;27;20190;-77
2022/01/19 10:46:18;;;;;;;3.50;3.20;;;7.10;99.90;;;;;;5066712;28;20188;-76
2022/01/19 10:48:46;;;;;;;3.40;3.10;;;7.10;99.90;;;;;;5107587;27;20189;-73
2022/01/19 10:51:13;;;;;;;4.17;3.77;;;7.10;99.90;;;;;;5068069;28;20179;-77
2022/01/19 10:53:44;;;;;;;4.57;4.10;;;7.10;99.90;;;;;;5069448;28;20204;-76
2022/01/19 10:56:29;;;;;;;3.97;3.67;;;7.00;99.90;;;;;;5068951;28;20197;-80
2022/01/19 10:59:03;;;;;;;3.83;3.43;;;7.00;99.90;;;;;;5072991;28;20187;-75
2022/01/19 11:01:59;;;;;;;4.37;3.97;;;7.00;99.90;;;;;;5074862;28;20358;-81
2022/01/19 11:04:37;;;;;;;4.60;3.67;;;7.00;99.90;;;;;;5049640;28;20198;-75
2022/01/19 11:07:11;;;;;;;4.10;3.70;;;7.00;99.90;;;;;;5069810;28;20177;-81
2022/01/19 11:09:55;;;;;;;4.30;3.90;;;7.00;99.90;;;;;;5079027;28;20299;-76
2022/01/19 11:12:26;;;;;;;4.27;3.87;;;7.00;99.90;;;;;;5071180;28;20276;-77
2022/01/19 11:14:52;;;;;;;3.93;3.53;;;7.00;99.90;;;;;;5105318;27;20176;-74
2022/01/19 11:17:25;;;;;;;4.17;3.77;;;7.00;99.90;;;;;;5078265;28;20172;-81
2022/01/19 11:19:52;;;;;;;3.90;3.50;;;7.00;99.90;;;;;;5073804;28;20252;-76
2022/01/19 11:22:41;;;;;;;4.00;3.60;;;7.00;99.90;;;;;;5070994;28;20227;-79
2022/01/19 11:25:33;;;;;;;4.20;3.80;;;7.00;99.90;;;;;;5080377;28;20226;-77
2022/01/19 11:28:02;;;;;;;3.80;3.37;;;7.00;99.90;;;;;;5077463;28;20230;-76
2022/01/19 11:30:33;;;;;;;4.20;3.80;;;7.00;99.90;;;;;;5077184;28;20200;-75
2022/01/19 11:33:24;;;;;;;4.23;3.83;;;7.00;99.90;;;;;;5081758;28;20261;-75
2022/01/19 11:36:02;;;;;;;4.27;3.87;;;7.00;99.90;;;;;;5072238;28;20195;-76
2022/01/19 11:38:44;;;;;;;5.67;4.30;;;7.00;99.90;;;;;;5103098;28;20200;-79
2022/01/19 11:41:11;;;;;;;4.57;4.17;;;7.00;99.90;;;;;;5074527;28;20173;-72
2022/01/19 11:43:47;;;;;;;4.30;3.90;;;7.00;99.90;;;;;;5104983;27;20201;-82
2022/01/19 11:46:43;;;;;;;4.60;4.10;;;7.00;99.90;;;;;;5070174;28;20188;-77
2022/01/19 11:49:12;;;;;;;4.80;4.03;;;7.00;99.90;;;;;;5079665;28;20209;-74
2022/01/19 11:51:38;;;;;;;4.57;4.17;;;7.10;99.90;;;;;;5072701;28;20175;-77
2022/01/19 11:54:13;;;;;;;4.20;3.80;;;7.10;99.90;;;;;;5108985;28;20283;-75
2022/01/19 11:57:00;;;;;;;3.90;3.50;;;7.10;99.90;;;;;;5112402;28;20195;-73
2022/01/19 11:59:30;;;;;;;3.90;3.50;;;7.10;99.90;;;;;;5102231;28;20173;-76
2022/01/19 12:02:32;;;;;;;3.87;3.57;;;7.10;99.90;;;;;;5069951;28;20204;-82
2022/01/19 12:04:58;;;;;;;4.23;3.57;;;7.10;99.90;;;;;;5058184;28;20189;-77
2022/01/19 12:07:48;;;;;;;3.77;3.37;;;7.10;99.90;;;;;;5078180;28;20183;-80
2022/01/19 12:10:19;;;;;;;4.53;3.77;;;7.10;99.90;;;;;;5094052;28;20257;-81
2022/01/19 12:16:04;;;;;;;4.30;3.70;;;7.10;99.90;;;;;;5072497;28;20197;-71
2022/01/19 12:18:43;;;;;;;4.67;4.07;;;7.10;99.90;;;;;;5091389;28;20229;-78
2022/01/19 12:21:13;;;;;;;4.27;3.87;;;7.10;99.90;;;;;;5068498;28;20223;-75
2022/01/19 12:23:41;;;;;;;4.30;3.90;;;7.10;99.90;;;;;;5088917;28;20187;-78
2022/01/19 12:26:09;;;;;;;4.80;4.30;;;7.10;99.90;;;;;;5079007;28;20185;-75
2022/01/19 12:28:44;;;;;;;5.80;4.30;;;7.10;99.90;;;;;;5086095;28;20180;-80
2022/01/19 12:31:25;;;;;;;4.30;3.90;;;7.10;99.90;;;;;;5102362;28;20192;-79
2022/01/19 12:34:06;;;;;;;4.30;3.90;;;7.10;99.90;;;;;;5100236;28;20205;-72
2022/01/19 12:36:58;;;;;;;4.47;3.83;;;7.10;99.90;;;;;;5102596;28;20173;-83
2022/01/19 12:39:29;;;;;;;4.60;3.87;;;7.10;99.90;;;;;;5089070;28;20173;-80
2022/01/19 12:42:02;;;;;;;5.10;4.37;;;7.10;99.90;;;;;;5069222;28;20203;-79
2022/01/19 12:44:40;;;;;;;5.03;4.53;;;7.10;99.90;;;;;;5097566;28;20215;-80
2022/01/19 12:47:26;;;;;;;5.70;4.80;;;7.00;99.90;;;;;;5067064;28;20177;-77
2022/01/19 12:49:55;;;;;;;5.93;5.07;;;7.00;99.90;;;;;;5101124;28;20183;-82
2022/01/19 12:52:24;;;;;;;5.67;5.07;;;7.00;99.90;;;;;;5069528;28;20250;-84
2022/01/19 12:54:51;;;;;;;6.30;5.47;;;6.90;99.90;;;;;;5081406;28;20177;-84
2022/01/19 12:57:17;;;;;;;6.10;5.50;;;6.90;99.90;;;;;;5077624;28;20491;-83
2022/01/19 12:59:49;;;;;;;6.60;5.90;;;6.90;99.90;;;;;;5077804;28;20187;-75
2022/01/19 13:02:16;;;;;;;7.73;5.43;;;6.90;99.90;;;;;;5074880;28;20204;-72
2022/01/19 13:04:48;;;;;;;7.30;6.13;;;6.80;99.90;;;;;;5062215;28;20212;-74
2022/01/19 13:07:17;;;;;;;7.63;6.43;;;6.90;99.90;;;;;;5082882;28;20206;-75
2022/01/19 13:12:42;;;;;;;7.40;6.57;;;6.80;99.90;;;;;;5083323;28;20227;-76
2022/01/19 13:15:08;;;;;;;8.13;7.23;;;6.80;99.90;;;;;;5082610;28;20177;-81
2022/01/19 13:17:46;;;;;;;7.63;6.83;;;6.80;99.90;;;;;;5065263;28;20181;-81
2022/01/19 13:20:24;;;;;;;7.93;6.60;;;6.80;99.90;;;;;;5065629;28;20307;-83
2022/01/19 13:22:58;;;;;;;10.67;7.37;;;6.70;99.90;;;;;;5097680;28;20626;-74
2022/01/19 13:25:27;;;;;;;7.67;6.57;;;6.80;99.90;;;;;;5073064;28;20368;-78
2022/01/19 13:27:55;;;;;;;7.60;6.80;;;6.70;99.90;;;;;;5095288;27;20208;-79
2022/01/19 13:30:27;;;;;;;7.03;6.10;;;6.70;99.90;;;;;;5106028;27;20188;-79
2022/01/19 13:32:55;;;;;;;6.70;6.00;;;6.70;99.90;;;;;;5103922;27;20215;-77
2022/01/19 13:35:23;;;;;;;8.23;6.63;;;6.70;99.90;;;;;;5074104;28;20197;-76
2022/01/19 13:37:55;;;;;;;8.80;6.97;;;6.70;99.90;;;;;;5074573;28;20327;-76
2022/01/19 13:40:30;;;;;;;7.47;6.67;;;6.70;99.90;;;;;;5070386;28;20172;-82
2022/01/19 13:43:03;;;;;;;8.53;7.40;;;6.70;99.90;;;;;;5075283;28;20176;-76
2022/01/19 13:50:46;;;;;;;9.43;7.67;;;6.70;99.90;;;;;;5074824;28;20176;-78
2022/01/19 13:53:15;;;;;;;8.60;7.37;;;6.70;99.90;;;;;;5072374;28;20205;-80
2022/01/19 13:55:42;;;;;;;8.53;7.30;;;6.70;99.90;;;;;;5075544;28;20215;-77
2022/01/19 13:58:13;;;;;;;8.63;7.07;;;6.60;99.90;;;;;;5070732;28;20168;-75
2022/01/19 14:00:54;;;;;;;8.43;7.40;;;6.60;99.90;;;;;;5082428;28;20210;-78
2022/01/19 14:03:22;;;;;;;9.00;6.93;;;6.60;99.90;;;;;;5081733;28;20193;-70
2022/01/19 14:05:54;;;;;;;8.37;7.20;;;6.60;99.90;;;;;;5084013;28;20197;-72
2022/01/19 14:08:32;;;;;;;9.53;7.83;;;6.60;99.90;;;;;;5099946;27;20213;-79
2022/01/19 14:10:58;;;;;;;9.03;7.27;;;6.60;99.90;;;;;;5072973;28;20184;-74
2022/01/19 14:13:26;;;;;;;8.23;7.23;;;6.50;99.90;;;;;;5073425;28;20209;-77
2022/01/19 14:15:56;;;;;;;9.10;7.67;;;6.50;99.90;;;;;;5105689;27;20176;-84
2022/01/19 14:18:24;;;;;;;8.67;7.63;;;6.50;99.90;;;;;;5074312;28;20176;-77
2022/01/19 14:21:09;;;;;;;8.77;7.20;;;6.60;99.90;;;;;;5071631;28;20199;-79
2022/01/19 14:23:38;;;;;;;8.20;6.60;;;6.60;99.90;;;;;;5069058;28;20177;-71
2022/01/19 14:26:11;;;;;;;8.70;7.07;;;6.60;99.90;;;;;;5072214;28;20200;-75
2022/01/19 14:28:38;;;;;;;7.73;6.47;;;6.60;99.90;;;;;;5073482;28;20172;-75
2022/01/19 14:31:12;;;;;;;9.83;7.43;;;6.60;99.90;;;;;;5073794;28;20194;-76
2022/01/19 14:33:49;;;;;;;9.20;7.30;;;6.60;99.90;;;;;;5108444;28;20207;-77
2022/01/19 14:36:25;;;;;;;9.43;7.87;;;6.60;99.90;;;;;;5082319;28;20182;-72
2022/01/19 14:38:59;;;;;;;9.00;6.40;;;6.60;99.90;;;;;;5072630;28;20269;-73
2022/01/19 14:41:31;;;;;;;9.27;7.37;;;6.60;99.90;;;;;;5071842;28;20177;-73
2022/01/19 14:44:07;;;;;;;8.57;7.07;;;6.50;99.90;;;;;;5067868;28;20201;-71
2022/01/19 14:46:40;;;;;;;10.70;7.40;;;6.60;99.90;;;;;;5106174;27;20198;-77
2022/01/19 14:49:05;;;;;;;9.73;7.17;;;6.60;99.90;;;;;;5104363;27;20266;-77
2022/01/19 14:51:37;;;;;;;9.67;6.90;;;6.50;99.90;;;;;;5100980;27;20228;-74
2022/01/19 14:54:09;;;;;;;7.23;6.23;;;6.50;99.90;;;;;;5074140;28;20220;-78